Time;durP1;ratioP1;P1;durP2;ratioP2;P2;SDS_P1;SDS_P2;PMS_P1;PMS_P2;Temp;Humidity;BMP_temperature;BMP_pressure;BME280_temperature;BME280_humidity;BME280_pressure;Samples;Min_cycle;Max_cycle;Signal;HPM_P1;HPM_P2
2022/02/01 00:02:02;;;;;;;5.70;0.60;;;7.40;80.40;;;;;;6170991;29;20059;-84
2022/02/01 00:05:10;;;;;;;1.35;0.35;;;7.50;80.10;;;;;;6167971;28;20437;-83
2022/02/01 00:08:19;;;;;;;2.28;1.38;;;7.60;79.60;;;;;;6168823;28;20051;-84
2022/02/01 00:11:32;;;;;;;1.83;0.70;;;7.60;79.60;;;;;;6178050;28;20054;-85
2022/02/01 00:14:53;;;;;;;4.82;0.70;;;7.70;79.00;;;;;;6193129;28;20074;-82
2022/02/01 00:18:14;;;;;;;4.88;0.98;;;7.70;78.60;;;;;;6189656;28;20051;-83
2022/02/01 00:34:47;;;;;;;7.78;1.17;;;7.50;78.50;;;;;;6163867;28;20255;-81
2022/02/01 00:37:58;;;;;;;;;;;7.40;79.10;;;;;;6164317;28;20163;-84
2022/02/01 00:41:04;;;;;;;5.25;0.73;;;7.40;78.80;;;;;;6162185;28;19946;-84
2022/02/01 00:44:06;;;;;;;4.40;0.57;;;7.50;78.30;;;;;;6162869;28;20050;-82
2022/02/01 00:47:11;;;;;;;3.67;0.95;;;7.50;77.90;;;;;;6161723;28;20095;-83
2022/02/01 00:50:15;;;;;;;3.92;1.08;;;7.60;77.30;;;;;;6162385;28;20048;-82
2022/02/01 00:53:21;;;;;;;3.40;0.50;;;7.60;77.60;;;;;;6165065;28;20059;-81
2022/02/01 00:56:24;;;;;;;5.38;0.77;;;7.60;76.60;;;;;;6167523;28;20070;-84
2022/02/01 00:59:26;;;;;;;6.53;0.65;;;7.70;76.60;;;;;;6206827;28;20057;-84
2022/02/01 01:02:29;;;;;;;1.40;0.40;;;7.70;76.50;;;;;;6217602;28;20046;-84
2022/02/01 01:05:31;;;;;;;4.03;1.08;;;7.70;76.40;;;;;;6238297;23;20088;-82
2022/02/01 01:08:33;;;;;;;4.03;0.65;;;7.80;76.30;;;;;;6156051;28;20504;-81
2022/02/01 01:11:36;;;;;;;6.57;1.50;;;7.80;76.30;;;;;;6155605;28;20415;-81
2022/02/01 01:15:02;;;;;;;3.17;0.63;;;7.80;75.70;;;;;;6155820;28;20051;-82
2022/02/01 01:44:50;;;;;;;5.07;0.70;;;7.70;75.10;;;;;;6157690;28;20051;-79
2022/02/01 01:54:32;;;;;;;4.25;0.75;;;7.70;74.30;;;;;;6131570;29;20059;-80
2022/02/01 01:57:34;;;;;;;6.07;1.90;;;7.70;74.00;;;;;;6139493;29;20055;-80
2022/02/01 02:00:55;;;;;;;7.20;1.33;;;7.70;74.30;;;;;;6157200;28;20155;-80
2022/02/01 02:03:57;;;;;;;8.25;1.15;;;7.70;74.30;;;;;;6156200;28;20055;-80
2022/02/01 02:07:00;;;;;;;7.47;0.90;;;7.80;74.30;;;;;;6156449;28;20182;-80
2022/02/01 02:10:03;;;;;;;4.97;0.45;;;7.80;74.00;;;;;;6156905;28;20055;-80
2022/02/01 02:14:17;;;;;;;3.70;0.63;;;7.80;73.80;;;;;;6155500;28;20102;-80
2022/02/01 02:16:27;;;;;;;7.22;2.35;;;7.70;73.90;;;;;;6139710;28;20044;-81
2022/02/01 02:19:31;;;;;;;8.65;1.27;;;7.70;74.20;;;;;;6125273;29;20056;-79
2022/02/01 02:22:34;;;;;;;9.43;1.40;;;7.60;74.30;;;;;;6126509;29;20059;-79
2022/02/01 02:25:37;;;;;;;14.70;1.40;;;7.70;74.30;;;;;;6126529;29;20143;-80
2022/02/01 02:28:38;;;;;;;7.68;1.10;;;7.70;74.40;;;;;;6138191;29;20044;-79
2022/02/01 02:31:40;;;;;;;12.52;1.80;;;7.60;74.40;;;;;;6157743;28;20536;-80
2022/02/01 02:34:43;;;;;;;9.52;1.73;;;7.60;73.80;;;;;;6149681;28;20066;-79
2022/02/01 02:37:46;;;;;;;12.77;1.42;;;7.60;73.30;;;;;;6150619;29;20083;-79
2022/02/01 02:41:02;;;;;;;12.55;1.40;;;7.60;73.90;;;;;;6149651;28;20054;-79
2022/02/01 02:47:39;;;;;;;13.35;2.47;;;7.50;74.10;;;;;;6076146;29;20049;-79
2022/02/01 02:50:41;;;;;;;16.92;1.95;;;7.40;74.20;;;;;;6076378;29;20053;-80
2022/02/01 02:53:45;;;;;;;10.60;1.48;;;7.40;73.90;;;;;;6144819;29;20066;-79
2022/02/01 02:56:49;;;;;;;10.70;1.50;;;7.40;74.00;;;;;;6148134;28;20064;-80
2022/02/01 02:59:52;;;;;;;6.75;2.00;;;7.30;74.00;;;;;;6144824;28;20057;-81
2022/02/01 03:02:54;;;;;;;17.20;2.65;;;7.30;74.00;;;;;;6152488;28;20039;-79
2022/02/01 03:05:56;;;;;;;8.95;1.40;;;7.20;74.30;;;;;;6150961;28;20054;-81
2022/02/01 03:08:59;;;;;;;13.38;2.28;;;7.20;74.20;;;;;;6151668;28;20417;-79
2022/02/01 03:12:02;;;;;;;6.80;1.58;;;7.20;74.40;;;;;;6149916;28;20051;-78
2022/02/01 03:15:37;;;;;;;20.25;3.25;;;7.30;74.10;;;;;;6149296;28;20505;-79
2022/02/01 03:21:51;;;;;;;17.52;2.10;;;7.20;73.30;;;;;;6150377;29;20059;-79
2022/02/01 03:24:56;;;;;;;14.35;1.35;;;7.10;72.60;;;;;;6149260;28;20573;-79
2022/02/01 03:27:58;;;;;;;9.32;1.10;;;7.10;73.20;;;;;;6158624;28;20054;-79
2022/02/01 03:30:59;;;;;;;3.65;1.17;;;7.00;73.10;;;;;;6168575;28;20054;-79
2022/02/01 03:34:01;;;;;;;9.30;1.85;;;7.00;72.50;;;;;;6154784;29;20185;-79
2022/02/01 03:37:03;;;;;;;10.45;1.50;;;7.00;73.00;;;;;;6154132;28;20081;-80
2022/02/01 03:40:10;;;;;;;15.02;1.55;;;7.00;72.70;;;;;;6154387;28;20043;-79
2022/02/01 03:43:12;;;;;;;9.13;1.08;;;7.00;72.70;;;;;;6154329;28;20520;-80
2022/02/01 03:46:14;;;;;;;8.73;1.60;;;7.00;72.30;;;;;;6154176;28;20059;-79
2022/02/01 03:49:16;;;;;;;8.40;2.08;;;7.00;72.00;;;;;;6154181;28;20501;-80
2022/02/01 03:52:17;;;;;;;15.00;2.00;;;7.00;71.40;;;;;;6153811;28;20051;-79
2022/02/01 03:55:21;;;;;;;8.93;1.55;;;7.00;71.00;;;;;;6153777;28;20137;-79
2022/02/01 03:58:23;;;;;;;13.77;1.92;;;6.90;70.10;;;;;;6152558;28;20051;-80
2022/02/01 04:01:25;;;;;;;13.68;1.40;;;6.80;71.00;;;;;;6154609;28;20560;-80
2022/02/01 04:04:29;;;;;;;22.27;2.42;;;6.70;71.00;;;;;;6155531;28;20061;-78
2022/02/01 04:07:31;;;;;;;18.75;2.78;;;6.70;71.10;;;;;;6164767;28;20047;-81
2022/02/01 04:10:34;;;;;;;18.33;2.33;;;6.70;71.10;;;;;;6160290;28;20051;-81
2022/02/01 04:13:36;;;;;;;13.88;3.03;;;6.60;71.30;;;;;;6160955;28;20054;-81
2022/02/01 04:16:38;;;;;;;10.88;0.90;;;6.70;71.70;;;;;;6159770;28;20130;-81
2022/02/01 04:19:40;;;;;;;12.20;1.58;;;6.70;71.30;;;;;;6157451;28;20043;-81
2022/02/01 04:22:41;;;;;;;12.55;2.10;;;6.60;71.10;;;;;;6136068;29;20075;-81
2022/02/01 04:25:46;;;;;;;9.65;2.78;;;6.60;71.30;;;;;;6135784;29;20057;-81
2022/02/01 04:28:48;;;;;;;16.30;2.45;;;6.60;71.40;;;;;;6152323;29;20047;-81
2022/02/01 04:31:50;;;;;;;7.82;1.45;;;6.60;71.30;;;;;;6159053;28;20420;-81
2022/02/01 04:34:59;;;;;;;10.02;1.23;;;6.60;71.40;;;;;;6158530;28;20481;-80
2022/02/01 04:38:01;;;;;;;10.00;1.40;;;6.50;71.60;;;;;;6158462;28;20051;-81
2022/02/01 04:41:04;;;;;;;13.30;2.10;;;6.50;72.10;;;;;;6157226;28;20043;-81
2022/02/01 04:44:06;;;;;;;5.30;1.42;;;6.50;72.20;;;;;;6154863;28;20066;-79
2022/02/01 04:47:08;;;;;;;7.00;1.35;;;6.60;72.10;;;;;;6153726;28;20507;-79
2022/02/01 04:50:14;;;;;;;9.95;1.45;;;6.50;71.80;;;;;;6154285;28;20597;-81
2022/02/01 04:53:16;;;;;;;10.00;1.67;;;6.50;72.20;;;;;;6155045;28;20047;-79
2022/02/01 04:56:19;;;;;;;8.40;2.03;;;6.50;72.40;;;;;;6153103;28;20047;-80
2022/02/01 04:59:21;;;;;;;7.18;1.80;;;6.50;72.60;;;;;;6151010;28;20116;-81
2022/02/01 05:02:23;;;;;;;12.60;1.67;;;6.50;72.00;;;;;;6153996;28;20078;-80
2022/02/01 05:05:28;;;;;;;20.65;2.92;;;6.50;71.90;;;;;;6152814;28;20406;-80
2022/02/01 05:08:30;;;;;;;7.57;1.10;;;6.40;72.20;;;;;;6153791;28;20187;-80
2022/02/01 05:11:33;;;;;;;12.20;1.13;;;6.40;72.00;;;;;;6153937;28;20050;-81
2022/02/01 05:14:35;;;;;;;5.00;2.00;;;6.40;72.00;;;;;;6153469;28;20133;-80
2022/02/01 05:17:40;;;;;;;6.32;1.13;;;6.30;72.20;;;;;;6153932;28;20497;-80
2022/02/01 05:20:47;;;;;;;15.30;1.90;;;6.30;72.50;;;;;;6153200;28;20425;-80
2022/02/01 05:23:50;;;;;;;8.43;1.23;;;6.20;72.70;;;;;;6153683;28;20076;-79
2022/02/01 05:26:54;;;;;;;9.73;2.38;;;6.20;72.90;;;;;;6150134;28;20110;-79
2022/02/01 05:29:57;;;;;;;10.23;1.73;;;6.20;72.80;;;;;;6154097;28;20409;-78
2022/02/01 05:32:59;;;;;;;10.70;1.88;;;6.10;73.10;;;;;;6153723;28;20075;-80
2022/02/01 05:36:02;;;;;;;11.40;2.70;;;6.10;73.20;;;;;;6153914;28;20044;-79
2022/02/01 05:39:14;;;;;;;8.10;1.42;;;6.10;73.40;;;;;;6154535;28;20136;-79
2022/02/01 05:42:22;;;;;;;9.85;1.58;;;6.10;73.20;;;;;;6154251;28;20059;-79
2022/02/01 05:45:24;;;;;;;;;;;6.00;73.10;;;;;;6154483;28;20054;-79
2022/02/01 05:48:27;;;;;;;12.32;2.35;;;6.00;73.50;;;;;;6154159;28;19934;-79
2022/02/01 05:51:29;;;;;;;19.10;1.83;;;5.90;73.30;;;;;;6154420;28;20053;-80
2022/02/01 05:54:30;;;;;;;12.02;1.85;;;5.80;73.70;;;;;;6153144;28;20194;-79
2022/02/01 05:57:33;;;;;;;5.35;1.35;;;5.80;73.60;;;;;;6153883;28;20051;-79
2022/02/01 06:00:36;;;;;;;9.15;1.58;;;5.80;73.30;;;;;;6153101;28;20051;-80
2022/02/01 06:03:37;;;;;;;11.73;2.72;;;5.80;73.00;;;;;;6153180;28;20083;-80
2022/02/01 06:06:39;;;;;;;4.28;1.45;;;5.80;73.00;;;;;;6153547;28;20071;-80
2022/02/01 06:09:41;;;;;;;6.30;1.55;;;5.80;73.30;;;;;;6153332;28;20129;-78
2022/02/01 06:12:46;;;;;;;8.00;1.92;;;5.90;73.30;;;;;;6152344;28;20126;-78
2022/02/01 06:15:48;;;;;;;11.00;2.17;;;5.80;73.80;;;;;;6152913;28;20047;-80
2022/02/01 06:18:49;;;;;;;6.90;1.30;;;5.80;74.20;;;;;;6153142;28;20058;-80
2022/02/01 06:21:51;;;;;;;7.68;2.13;;;5.80;74.70;;;;;;6109992;28;20062;-78
2022/02/01 06:24:53;;;;;;;15.13;1.83;;;5.80;75.10;;;;;;6105501;29;20175;-78
2022/02/01 06:27:57;;;;;;;10.77;1.85;;;5.80;75.10;;;;;;6127615;29;20091;-79
2022/02/01 06:30:58;;;;;;;15.32;2.90;;;5.80;75.20;;;;;;6151752;28;20035;-79
2022/02/01 06:34:00;;;;;;;16.08;2.15;;;5.80;75.30;;;;;;6152370;28;20140;-79
2022/02/01 06:37:02;;;;;;;14.43;2.13;;;5.80;75.60;;;;;;6152364;28;20536;-79
2022/02/01 06:40:05;;;;;;;4.40;1.38;;;5.80;75.90;;;;;;6152252;28;20069;-79
2022/02/01 06:43:08;;;;;;;13.00;1.92;;;5.70;76.10;;;;;;6152078;28;20043;-78
2022/02/01 06:46:10;;;;;;;5.82;1.58;;;5.70;76.30;;;;;;6152983;28;20133;-78
2022/02/01 06:49:11;;;;;;;14.10;3.10;;;5.70;76.30;;;;;;6151453;28;20055;-79
2022/02/01 06:52:13;;;;;;;13.98;1.85;;;5.70;76.60;;;;;;6152359;28;20057;-79
2022/02/01 06:55:21;;;;;;;6.40;1.38;;;5.70;76.80;;;;;;6151278;28;20043;-79
2022/02/01 06:58:24;;;;;;;7.43;1.25;;;5.60;76.90;;;;;;6151053;28;20043;-79
2022/02/01 07:01:27;;;;;;;6.20;2.00;;;5.60;77.30;;;;;;6154310;28;20053;-80
2022/02/01 07:04:28;;;;;;;13.35;2.25;;;5.60;77.60;;;;;;6157557;28;20051;-78
2022/02/01 07:07:30;;;;;;;3.67;1.55;;;5.70;77.60;;;;;;6156818;28;20055;-78
2022/02/01 07:10:32;;;;;;;7.57;1.30;;;5.70;77.50;;;;;;6156851;28;20106;-78
2022/02/01 07:13:35;;;;;;;8.05;2.55;;;5.70;77.70;;;;;;6157274;28;20055;-80
2022/02/01 07:16:37;;;;;;;7.82;1.27;;;5.70;77.80;;;;;;6156097;28;20437;-79
2022/02/01 07:19:39;;;;;;;6.07;0.80;;;5.70;77.70;;;;;;6156265;28;20126;-78
2022/02/01 07:22:43;;;;;;;6.68;1.40;;;5.70;77.80;;;;;;6155676;28;20062;-78
2022/02/01 07:25:47;;;;;;;9.10;1.52;;;5.70;77.90;;;;;;6156478;28;20182;-78
2022/02/01 07:28:50;;;;;;;10.50;2.55;;;5.80;78.00;;;;;;6155874;28;20048;-78
2022/02/01 07:31:52;;;;;;;11.27;1.83;;;5.80;78.10;;;;;;6156207;28;20043;-78
2022/02/01 07:34:54;;;;;;;16.98;2.72;;;5.70;78.60;;;;;;6156618;28;20102;-78
2022/02/01 07:37:57;;;;;;;9.80;2.70;;;5.70;79.20;;;;;;6157056;28;20055;-78
2022/02/01 07:41:00;;;;;;;11.85;1.58;;;5.70;79.20;;;;;;6157076;28;20501;-79
2022/02/01 07:44:04;;;;;;;15.57;2.55;;;5.70;79.60;;;;;;6156983;28;20521;-79
2022/02/01 07:47:16;;;;;;;15.55;1.92;;;5.70;80.20;;;;;;6156555;28;20051;-79
2022/02/01 07:50:18;;;;;;;6.45;1.48;;;5.80;79.30;;;;;;6158123;28;20457;-79
2022/02/01 07:53:20;;;;;;;9.70;2.28;;;5.90;79.00;;;;;;6156138;28;20051;-79
2022/02/01 07:56:21;;;;;;;9.60;1.83;;;5.90;78.80;;;;;;6155778;28;20049;-79
2022/02/01 07:59:24;;;;;;;11.45;2.45;;;6.00;78.70;;;;;;6154293;28;20134;-80
2022/02/01 08:02:26;;;;;;;13.75;2.22;;;6.10;78.50;;;;;;6157523;28;20050;-79
2022/02/01 08:05:30;;;;;;;13.32;2.35;;;6.10;78.10;;;;;;6156100;28;20055;-79
2022/02/01 08:08:32;;;;;;;8.93;2.15;;;6.10;78.10;;;;;;6156860;28;20043;-79
2022/02/01 08:11:34;;;;;;;9.52;2.45;;;6.10;78.20;;;;;;6157094;28;20130;-79
2022/02/01 08:18:03;;;;;;;10.45;2.65;;;6.10;78.50;;;;;;6137288;28;20075;-79
2022/02/01 08:21:06;;;;;;;11.20;1.80;;;6.20;78.10;;;;;;6108841;29;20056;-79
2022/02/01 08:24:07;;;;;;;10.93;2.15;;;6.20;78.10;;;;;;6107841;29;20048;-79
2022/02/01 08:27:09;;;;;;;9.00;2.80;;;6.30;77.80;;;;;;6119175;29;20158;-79
2022/02/01 08:30:13;;;;;;;12.65;2.00;;;6.40;77.70;;;;;;6156826;28;20090;-79
2022/02/01 08:33:14;;;;;;;6.22;1.45;;;6.30;77.60;;;;;;6155936;28;20047;-79
2022/02/01 08:36:16;;;;;;;5.68;2.30;;;6.40;77.50;;;;;;6155992;28;20043;-79
2022/02/01 08:39:18;;;;;;;15.43;2.30;;;6.40;77.40;;;;;;6156848;28;20593;-79
2022/02/01 08:42:20;;;;;;;7.60;1.42;;;6.50;77.20;;;;;;6158387;28;20086;-80
2022/02/01 08:45:25;;;;;;;11.90;2.08;;;6.50;76.70;;;;;;6157317;28;20051;-79
2022/02/01 08:48:26;;;;;;;12.18;2.20;;;6.40;77.00;;;;;;6157235;28;20480;-79
2022/02/01 08:51:37;;;;;;;11.50;2.03;;;6.50;76.60;;;;;;6157894;28;20051;-79
2022/02/01 08:54:40;;;;;;;9.57;1.95;;;6.60;76.60;;;;;;6157537;28;20051;-79
2022/02/01 08:57:42;;;;;;;20.05;1.73;;;6.70;76.10;;;;;;6157373;28;20101;-79
2022/02/01 09:00:45;;;;;;;5.13;1.35;;;6.60;76.00;;;;;;6156767;28;20103;-79
2022/02/01 09:03:47;;;;;;;8.95;1.80;;;6.60;75.70;;;;;;6156312;28;20043;-79
2022/02/01 09:06:49;;;;;;;4.43;1.27;;;6.70;75.60;;;;;;6156150;28;20051;-78
2022/02/01 09:09:50;;;;;;;13.77;2.00;;;6.80;75.40;;;;;;6156516;28;20533;-79
2022/02/01 09:12:52;;;;;;;12.80;1.75;;;6.90;74.70;;;;;;6156858;28;20047;-80
2022/02/01 09:15:55;;;;;;;7.78;2.30;;;6.90;74.20;;;;;;6156433;28;20051;-80
2022/02/01 09:18:57;;;;;;;14.75;2.83;;;7.00;74.10;;;;;;6156855;28;20139;-81
2022/02/01 09:22:00;;;;;;;2.45;1.30;;;7.00;74.10;;;;;;6156941;28;20066;-81
2022/02/01 09:25:02;;;;;;;10.55;1.70;;;7.00;73.30;;;;;;6155230;28;20043;-80
2022/02/01 09:28:04;;;;;;;9.02;1.50;;;7.00;72.80;;;;;;6152454;28;20035;-79
2022/02/01 09:31:08;;;;;;;6.03;1.55;;;7.00;72.50;;;;;;6155018;28;20047;-79
2022/02/01 09:34:10;;;;;;;12.13;1.83;;;6.90;72.40;;;;;;6156467;28;20127;-79
2022/02/01 09:37:12;;;;;;;7.40;1.50;;;6.80;72.20;;;;;;6155001;28;20080;-82
2022/02/01 09:40:14;;;;;;;6.25;1.83;;;6.90;72.60;;;;;;6155609;28;20046;-79
2022/02/01 09:43:17;;;;;;;20.23;2.80;;;6.90;72.00;;;;;;6155948;28;20049;-82
2022/02/01 09:46:21;;;;;;;14.82;2.53;;;7.00;71.90;;;;;;6155607;28;20065;-79
2022/02/01 09:49:25;;;;;;;8.60;1.10;;;7.20;71.40;;;;;;6155421;28;20043;-78
2022/02/01 09:52:27;;;;;;;14.60;2.00;;;7.20;70.60;;;;;;6156153;28;20050;-79
2022/02/01 09:55:29;;;;;;;12.88;1.67;;;7.20;70.90;;;;;;6154934;28;20054;-81
2022/02/01 09:58:31;;;;;;;10.88;1.90;;;7.30;70.50;;;;;;6152051;28;20061;-82
2022/02/01 10:01:39;;;;;;;7.53;1.95;;;7.30;70.20;;;;;;6154745;28;20070;-82
2022/02/01 10:04:41;;;;;;;12.95;1.40;;;7.40;69.80;;;;;;6153736;28;20055;-81
2022/02/01 10:07:48;;;;;;;10.95;2.05;;;7.40;69.90;;;;;;6154195;28;20053;-80
2022/02/01 10:10:55;;;;;;;37.42;2.17;;;7.50;69.70;;;;;;6154529;28;20055;-83
2022/02/01 10:13:57;;;;;;;7.70;1.45;;;7.40;69.60;;;;;;6155393;28;20051;-80
2022/02/01 10:17:06;;;;;;;11.55;1.92;;;7.40;70.20;;;;;;6154027;28;20051;-82
2022/02/01 10:20:09;;;;;;;8.48;1.33;;;7.40;70.40;;;;;;6154555;28;20051;-81
2022/02/01 10:23:33;;;;;;;10.65;2.60;;;7.50;70.20;;;;;;6153627;28;20072;-83
2022/02/01 10:26:35;;;;;;;5.90;1.30;;;7.60;70.30;;;;;;6125702;28;20498;-82
2022/02/01 10:29:39;;;;;;;8.15;1.33;;;7.60;69.50;;;;;;6153001;29;20078;-79
2022/02/01 10:33:17;;;;;;;7.97;1.77;;;7.60;69.50;;;;;;6153106;28;20047;-81
2022/02/01 10:36:19;;;;;;;7.57;1.30;;;7.70;69.50;;;;;;6152203;28;20047;-83
2022/02/01 10:39:23;;;;;;;13.55;2.00;;;7.70;69.30;;;;;;6152160;28;20047;-82
2022/02/01 10:42:26;;;;;;;9.07;2.22;;;7.70;69.30;;;;;;6152225;28;20584;-81
2022/02/01 10:45:28;;;;;;;10.50;2.60;;;7.60;69.20;;;;;;6153306;28;20051;-84
2022/02/01 10:48:32;;;;;;;9.55;3.22;;;7.60;69.30;;;;;;6154513;28;20079;-85
2022/02/01 10:51:34;;;;;;;4.60;1.42;;;7.40;69.10;;;;;;6153180;28;20047;-83
2022/02/01 10:54:37;;;;;;;6.70;1.45;;;7.40;69.20;;;;;;6153577;28;20502;-82
2022/02/01 10:57:40;;;;;;;3.55;1.33;;;7.40;69.30;;;;;;6154077;28;20058;-82
2022/02/01 11:00:43;;;;;;;10.75;1.60;;;7.40;69.00;;;;;;6154066;28;20040;-82
2022/02/01 11:03:48;;;;;;;9.25;1.55;;;7.40;69.50;;;;;;6154520;28;20051;-84
2022/02/01 11:06:51;;;;;;;4.75;1.30;;;7.20;70.50;;;;;;6154514;28;20047;-83
2022/02/01 11:09:53;;;;;;;13.73;2.38;;;7.10;71.80;;;;;;6155689;28;20413;-82
2022/02/01 11:13:05;;;;;;;9.68;1.55;;;6.90;73.20;;;;;;6153547;28;20055;-83
2022/02/01 11:16:09;;;;;;;7.85;0.82;;;6.80;75.00;;;;;;6145507;28;20054;-78
2022/02/01 11:19:12;;;;;;;9.82;2.15;;;6.60;75.10;;;;;;6149253;28;20043;-83
2022/02/01 11:22:25;;;;;;;15.02;2.75;;;6.60;76.60;;;;;;6152334;28;20044;-81
2022/02/01 11:25:29;;;;;;;8.93;1.90;;;6.40;77.80;;;;;;6150822;28;20043;-82
2022/02/01 11:28:40;;;;;;;3.63;1.33;;;6.40;78.30;;;;;;6149461;28;20437;-83
2022/02/01 11:31:44;;;;;;;2.90;1.27;;;6.40;78.40;;;;;;6152560;28;20073;-82
2022/02/01 11:34:47;;;;;;;14.07;2.00;;;6.40;78.10;;;;;;6152594;28;20075;-80
2022/02/01 11:37:52;;;;;;;8.80;1.52;;;6.30;78.00;;;;;;6152680;28;20138;-83
2022/02/01 11:41:00;;;;;;;3.33;0.45;;;6.30;77.60;;;;;;6151714;28;20079;-79
2022/02/01 11:44:09;;;;;;;;;;;6.30;77.40;;;;;;6152338;28;20051;-84
2022/02/01 11:47:12;;;;;;;7.28;1.38;;;6.30;77.50;;;;;;6150209;28;20286;-82
2022/02/01 11:50:16;;;;;;;8.77;1.50;;;6.30;76.80;;;;;;6154564;28;20051;-83
2022/02/01 11:53:24;;;;;;;4.18;1.15;;;6.30;76.90;;;;;;6155927;28;20043;-83
2022/02/01 11:56:33;;;;;;;13.00;1.60;;;6.30;77.20;;;;;;6153430;28;20055;-82
2022/02/01 11:59:34;;;;;;;3.03;1.17;;;6.30;77.10;;;;;;6154757;28;20386;-81
2022/02/01 12:02:39;;;;;;;18.90;2.10;;;6.40;77.50;;;;;;6156936;28;20051;-83
2022/02/01 12:05:43;;;;;;;5.40;1.45;;;6.50;77.70;;;;;;6156565;28;20493;-81
2022/02/01 12:08:45;;;;;;;6.78;1.83;;;6.50;77.40;;;;;;6155707;28;20051;-80
2022/02/01 12:11:48;;;;;;;8.82;1.70;;;6.50;77.20;;;;;;6155720;28;20514;-81
2022/02/01 12:14:56;;;;;;;9.07;1.63;;;6.50;77.30;;;;;;6155548;28;20125;-80
2022/02/01 12:18:06;;;;;;;6.97;1.30;;;6.50;77.30;;;;;;6154731;28;20062;-78
2022/02/01 12:21:19;;;;;;;5.32;0.73;;;6.60;77.00;;;;;;6112380;29;20410;-80
2022/02/01 12:24:26;;;;;;;7.15;1.10;;;6.60;77.00;;;;;;6109524;29;20056;-83
2022/02/01 12:27:34;;;;;;;4.82;1.40;;;6.60;76.80;;;;;;6122951;29;20054;-81
2022/02/01 12:30:35;;;;;;;;;;;6.40;78.20;;;;;;6145858;28;20043;-81
2022/02/01 12:33:42;;;;;;;14.18;1.80;;;6.40;79.10;;;;;;6154492;29;19929;-82
2022/02/01 12:36:49;;;;;;;6.40;1.15;;;6.20;80.50;;;;;;6152650;28;20047;-81
2022/02/01 12:40:01;;;;;;;13.63;2.10;;;6.10;82.30;;;;;;6152905;28;20130;-82
2022/02/01 12:43:10;;;;;;;11.40;3.15;;;5.90;83.90;;;;;;6155062;28;20054;-83
2022/02/01 12:46:31;;;;;;;3.40;1.20;;;5.90;85.30;;;;;;6157512;29;20086;-83
2022/02/01 12:49:37;;;;;;;9.90;1.52;;;5.90;85.80;;;;;;6158146;29;20051;-82
2022/02/01 12:52:40;;;;;;;17.60;2.00;;;5.90;86.20;;;;;;6156022;28;20519;-81
2022/02/01 12:55:42;;;;;;;8.27;2.00;;;6.00;87.40;;;;;;6154722;28;20177;-82
2022/02/01 12:58:44;;;;;;;12.15;2.33;;;5.80;86.80;;;;;;6156236;28;20090;-82
2022/02/01 13:01:45;;;;;;;10.88;2.85;;;5.70;87.90;;;;;;6157221;28;20051;-82
2022/02/01 13:04:51;;;;;;;5.70;1.45;;;5.70;88.50;;;;;;6168119;28;20159;-79
2022/02/01 13:08:00;;;;;;;10.75;2.00;;;5.70;88.70;;;;;;6156273;28;20055;-83
2022/02/01 13:14:35;;;;;;;7.68;1.67;;;5.50;89.80;;;;;;6154681;29;20051;-80
2022/02/01 13:17:44;;;;;;;4.20;1.27;;;5.50;90.70;;;;;;6155548;28;20050;-81
2022/02/01 13:20:56;;;;;;;12.70;3.05;;;5.40;90.90;;;;;;6135273;28;20040;-80
2022/02/01 13:24:01;;;;;;;7.70;1.08;;;5.20;91.10;;;;;;6130101;29;20048;-81
2022/02/01 13:27:03;;;;;;;13.48;2.00;;;5.20;91.40;;;;;;6134046;29;20043;-82
2022/02/01 13:30:07;;;;;;;7.75;2.10;;;5.00;92.10;;;;;;6147058;29;20047;-81
2022/02/01 13:33:11;;;;;;;16.15;2.15;;;4.80;93.30;;;;;;6154309;28;20099;-81
2022/02/01 13:36:13;;;;;;;6.25;2.25;;;4.80;94.00;;;;;;6154546;28;20047;-80
2022/02/01 13:39:25;;;;;;;4.38;2.15;;;4.60;93.60;;;;;;6153942;28;20457;-81
2022/02/01 13:42:32;;;;;;;11.68;2.17;;;4.50;93.80;;;;;;6154086;28;20497;-79
2022/02/01 13:45:35;;;;;;;12.27;2.42;;;4.50;94.50;;;;;;6146660;28;20051;-80
2022/02/01 13:48:37;;;;;;;8.07;2.53;;;4.40;94.50;;;;;;6130351;29;20051;-80
2022/02/01 13:51:46;;;;;;;9.23;2.42;;;4.40;95.20;;;;;;6129462;29;20051;-82
2022/02/01 13:54:49;;;;;;;11.52;3.17;;;4.40;95.00;;;;;;6128455;28;20059;-80
2022/02/01 13:57:53;;;;;;;14.10;3.85;;;4.30;94.50;;;;;;6139986;29;20078;-82
2022/02/01 14:00:56;;;;;;;12.73;3.10;;;4.20;94.70;;;;;;6153664;28;20130;-79
2022/02/01 14:04:06;;;;;;;14.25;3.40;;;4.20;95.20;;;;;;6153194;28;20509;-80
2022/02/01 14:07:15;;;;;;;6.60;2.33;;;4.20;95.60;;;;;;6153256;28;20043;-80
2022/02/01 14:10:28;;;;;;;18.17;4.30;;;4.30;95.90;;;;;;6153482;28;20087;-80
2022/02/01 14:13:59;;;;;;;9.70;3.20;;;4.20;95.50;;;;;;6152721;28;20118;-80
2022/02/01 14:27:15;;;;;;;9.65;4.88;;;4.10;96.50;;;;;;6120898;28;20050;-80
2022/02/01 14:33:53;;;;;;;11.63;2.97;;;4.10;96.90;;;;;;6155068;28;20118;-81
2022/02/01 14:36:59;;;;;;;29.38;8.27;;;4.10;96.80;;;;;;6152622;28;20406;-83
2022/02/01 14:43:39;;;;;;;0.00;0.00;;;4.10;96.90;;;;;;6154449;28;20517;-80
2022/02/01 14:46:41;;;;;;;3.47;1.52;;;4.20;96.90;;;;;;6154421;28;20081;-80
2022/02/01 14:49:43;;;;;;;0.00;0.00;;;4.20;97.20;;;;;;6155924;28;20318;-80
2022/02/01 14:52:45;;;;;;;0.00;0.00;;;4.20;97.10;;;;;;6153062;28;20048;-82
2022/02/01 14:55:55;;;;;;;0.00;0.00;;;4.20;97.20;;;;;;6153133;28;20043;-80
2022/02/01 15:15:40;;;;;;;0.00;0.00;;;4.20;97.10;;;;;;6116072;29;20510;-81
2022/02/01 15:18:44;;;;;;;0.00;0.00;;;4.20;97.20;;;;;;6129582;29;20083;-81
2022/02/01 15:21:46;;;;;;;0.00;0.00;;;4.20;97.00;;;;;;6121142;29;20047;-80
2022/02/01 15:24:48;;;;;;;0.00;0.00;;;4.20;97.00;;;;;;6127142;29;20055;-80
2022/02/01 15:27:50;;;;;;;0.00;0.00;;;4.20;96.90;;;;;;6143436;29;20108;-80
2022/02/01 15:30:53;;;;;;;0.00;0.00;;;4.20;96.80;;;;;;6157076;28;20122;-80
2022/02/01 15:33:56;;;;;;;0.00;0.00;;;4.20;96.90;;;;;;6157617;28;20570;-79
2022/02/01 15:37:01;;;;;;;0.00;0.00;;;4.20;97.10;;;;;;6156655;28;20047;-80
2022/02/01 15:57:04;;;;;;;0.00;0.00;;;4.40;97.10;;;;;;6154137;28;20498;-79
2022/02/01 16:00:07;;;;;;;0.00;0.00;;;4.40;97.00;;;;;;6158003;28;20053;-81
2022/02/01 16:03:18;;;;;;;0.00;0.00;;;4.40;96.90;;;;;;6156051;28;20126;-78
2022/02/01 16:06:20;;;;;;;0.00;0.00;;;4.40;96.90;;;;;;6157563;28;20425;-80
2022/02/01 16:09:30;;;;;;;0.00;0.00;;;4.40;97.10;;;;;;6156599;28;20067;-81
2022/02/01 16:12:36;;;;;;;0.00;0.00;;;4.40;96.90;;;;;;6157766;28;20048;-81
2022/02/01 16:15:38;;;;;;;0.73;0.73;;;4.40;96.90;;;;;;6159682;28;20043;-80
2022/02/01 16:18:43;;;;;;;1.27;1.27;;;4.50;96.80;;;;;;6164928;28;20058;-82
2022/02/01 16:21:45;;;;;;;0.10;0.10;;;4.40;96.80;;;;;;6145467;28;20138;-80
2022/02/01 16:24:47;;;;;;;0.00;0.00;;;4.40;96.70;;;;;;6132936;29;20051;-82
2022/02/01 16:27:48;;;;;;;0.00;0.00;;;4.30;96.50;;;;;;6146763;29;20047;-82
2022/02/01 16:30:51;;;;;;;0.00;0.00;;;4.40;96.80;;;;;;6160581;28;20469;-81
2022/02/01 16:33:56;;;;;;;0.00;0.00;;;4.40;96.80;;;;;;6160262;28;20055;-80
2022/02/01 16:36:58;;;;;;;0.00;0.00;;;4.40;96.80;;;;;;6160319;28;20236;-81
2022/02/01 16:40:03;;;;;;;0.00;0.00;;;4.40;96.60;;;;;;6158037;28;20458;-81
2022/02/01 16:43:09;;;;;;;0.00;0.00;;;4.40;96.70;;;;;;6160747;28;20071;-81
2022/02/01 16:46:12;;;;;;;0.00;0.00;;;4.50;96.90;;;;;;6160639;28;20075;-82
2022/02/01 16:49:15;;;;;;;0.00;0.00;;;4.60;97.00;;;;;;6158193;28;20059;-82
2022/02/01 16:52:24;;;;;;;0.00;0.00;;;4.60;96.70;;;;;;6158726;28;20067;-81
2022/02/01 16:55:34;;;;;;;0.00;0.00;;;4.60;96.80;;;;;;6159306;28;20102;-82
2022/02/01 16:58:43;;;;;;;0.00;0.00;;;4.60;96.70;;;;;;6156762;28;20058;-82
2022/02/01 17:01:47;;;;;;;0.00;0.00;;;4.60;96.70;;;;;;6111881;29;20149;-81
2022/02/01 17:04:50;;;;;;;0.00;0.00;;;4.70;96.80;;;;;;6109943;29;20071;-82
2022/02/01 17:07:53;;;;;;;0.00;0.00;;;4.60;96.90;;;;;;6110181;29;20507;-82
2022/02/01 17:10:58;;;;;;;0.00;0.00;;;4.60;97.30;;;;;;6124245;28;20043;-81
2022/02/01 17:14:07;;;;;;;0.00;0.00;;;4.70;97.80;;;;;;6158392;28;20145;-82
2022/02/01 17:17:22;;;;;;;0.00;0.00;;;4.70;98.00;;;;;;6159736;28;20058;-83
2022/02/01 17:23:46;;;;;;;0.00;0.00;;;4.80;98.10;;;;;;6145055;28;20056;-82
2022/02/01 17:26:49;;;;;;;0.00;0.00;;;4.80;98.20;;;;;;6122523;28;20047;-81
2022/02/01 17:29:51;;;;;;;0.00;0.00;;;4.70;98.20;;;;;;6174350;28;20185;-81
2022/02/01 17:32:53;;;;;;;0.00;0.00;;;4.80;98.30;;;;;;6160360;28;20533;-81
2022/02/01 17:35:56;;;;;;;0.00;0.00;;;4.80;98.40;;;;;;6169961;28;20558;-81
2022/02/01 17:38:59;;;;;;;0.00;0.00;;;4.80;98.30;;;;;;6176623;28;20061;-81
2022/02/01 17:42:01;;;;;;;0.00;0.00;;;4.80;98.20;;;;;;6156489;28;20077;-81
2022/02/01 17:45:04;;;;;;;0.00;0.00;;;4.80;98.20;;;;;;6161998;28;20505;-80
2022/02/01 17:48:06;;;;;;;0.00;0.00;;;4.80;98.20;;;;;;6159698;28;20047;-81
2022/02/01 17:51:13;;;;;;;0.00;0.00;;;4.80;98.40;;;;;;6164484;28;20129;-81
2022/02/01 17:54:19;;;;;;;0.00;0.00;;;4.80;98.30;;;;;;6157817;29;20051;-81
2022/02/01 17:57:20;;;;;;;0.00;0.00;;;4.80;98.10;;;;;;6157520;28;20051;-80
2022/02/01 18:00:22;;;;;;;0.00;0.00;;;4.80;98.30;;;;;;6148433;29;20047;-81
2022/02/01 18:03:24;;;;;;;0.00;0.00;;;4.80;98.30;;;;;;6159806;28;20591;-80
2022/02/01 18:06:27;;;;;;;0.00;0.00;;;4.80;98.20;;;;;;6158585;28;20079;-81